createdAt,value
2022-11-02T00:00:27.576Z,87.04
2022-11-02T00:02:55.426Z,86.69
2022-11-02T00:05:24.823Z,87.11
2022-11-02T00:07:53.286Z,87.78
2022-11-02T00:10:22.052Z,86.98
2022-11-02T00:12:50.413Z,87.04
2022-11-02T00:15:20.011Z,88.05
2022-11-02T00:17:51.470Z,87.32
2022-11-02T00:20:21.767Z,86.92
2022-11-02T00:22:53.032Z,86.93
2022-11-02T00:25:23.827Z,87.51
2022-11-02T00:27:51.522Z,86.65
2022-11-02T00:30:20.926Z,87.93
2022-11-02T00:32:48.577Z,88.22
2022-11-02T00:35:16.285Z,86.77
2022-11-02T00:37:43.976Z,87.36
2022-11-02T00:40:12.475Z,87.24
2022-11-02T00:42:40.121Z,89.12
2022-11-02T00:45:09.197Z,87.81
2022-11-02T00:47:38.433Z,87.55
2022-11-02T00:50:07.315Z,88.26
2022-11-02T00:52:35.054Z,88.16
2022-11-02T00:55:02.682Z,87.85
2022-11-02T00:57:30.326Z,87.72
2022-11-02T00:59:57.995Z,88.35
2022-11-02T01:02:25.711Z,88.41
2022-11-02T01:04:54.963Z,88.70
2022-11-02T01:07:22.636Z,89.12
2022-11-02T01:09:50.324Z,88.67
2022-11-02T01:12:17.978Z,89.00
2022-11-02T01:14:47.259Z,89.60
2022-11-02T01:17:15.493Z,88.93
2022-11-02T01:19:43.292Z,88.94
2022-11-02T01:22:12.920Z,88.89
2022-11-02T01:24:40.577Z,89.08
2022-11-02T01:27:08.341Z,89.84
2022-11-02T01:29:36.005Z,90.11
2022-11-02T01:32:03.681Z,90.06
2022-11-02T01:34:31.331Z,89.71
2022-11-02T01:36:59.022Z,89.84
2022-11-02T01:39:28.059Z,89.68
2022-11-02T01:41:55.832Z,90.18
2022-11-02T01:44:31.789Z,90.00
2022-11-02T01:47:03.892Z,90.37
2022-11-02T01:49:34.817Z,90.44
2022-11-02T01:52:08.071Z,91.18
2022-11-02T01:54:43.213Z,90.82
2022-11-02T01:57:13.199Z,91.21
2022-11-02T01:59:45.685Z,90.95
2022-11-02T02:02:19.646Z,91.12
2022-11-02T02:04:52.205Z,91.08
2022-11-02T02:07:21.303Z,91.00
2022-11-02T02:09:51.499Z,91.03
2022-11-02T02:12:20.662Z,91.21
2022-11-02T02:14:48.560Z,90.86
2022-11-02T02:17:34.281Z,91.23
2022-11-02T02:20:08.755Z,91.25
2022-11-02T02:23:07.538Z,91.01
2022-11-02T02:26:13.455Z,91.17
2022-11-02T02:28:48.665Z,91.24
2022-11-02T02:31:22.122Z,91.82
2022-11-02T02:33:56.646Z,91.83
2022-11-02T02:36:30.521Z,91.56
2022-11-02T02:39:03.436Z,92.47
2022-11-02T02:41:39.146Z,92.61
2022-11-02T02:44:12.904Z,92.57
2022-11-02T02:46:46.671Z,92.67
2022-11-02T02:49:20.364Z,93.33
2022-11-02T02:51:48.469Z,93.57
2022-11-02T02:54:20.640Z,93.49
2022-11-02T02:56:52.249Z,93.19
2022-11-02T02:59:26.636Z,93.72
2022-11-02T03:01:56.841Z,93.56
2022-11-02T03:04:24.687Z,94.23
2022-11-02T03:06:55.777Z,93.92
2022-11-02T03:09:30.604Z,94.33
2022-11-02T03:12:08.246Z,94.21
2022-11-02T03:14:51.073Z,93.75
2022-11-02T03:17:21.614Z,93.95
2022-11-02T03:19:56.153Z,93.95
2022-11-02T03:22:31.163Z,93.66
2022-11-02T03:25:04.442Z,94.07
2022-11-02T03:27:41.044Z,94.28
2022-11-02T03:30:14.432Z,93.76
2022-11-02T03:32:51.347Z,92.92
2022-11-02T03:35:24.365Z,92.93
2022-11-02T03:37:57.363Z,92.97
2022-11-02T03:40:30.397Z,92.56
2022-11-02T03:43:01.120Z,92.66
2022-11-02T03:45:37.304Z,92.82
2022-11-02T03:48:08.393Z,92.87
2022-11-02T03:50:39.410Z,93.15
2022-11-02T03:53:10.869Z,93.61
2022-11-02T03:55:43.736Z,93.67
2022-11-02T03:58:12.749Z,93.59
2022-11-02T04:00:48.869Z,93.88
2022-11-02T04:03:18.584Z,92.82
2022-11-02T04:05:46.416Z,92.56
2022-11-02T04:08:24.479Z,92.60
2022-11-02T04:11:11.408Z,93.16
2022-11-02T04:13:56.664Z,93.44
2022-11-02T04:16:28.249Z,93.58
2022-11-02T04:19:13.918Z,93.62
2022-11-02T04:22:01.765Z,93.89
2022-11-02T04:24:47.039Z,94.09
2022-11-02T04:27:19.729Z,94.04
2022-11-02T04:29:48.566Z,94.40
2022-11-02T04:32:37.868Z,94.59
2022-11-02T04:35:05.346Z,94.73
2022-11-02T04:37:50.701Z,94.53
2022-11-02T04:40:18.583Z,94.66
2022-11-02T04:42:46.953Z,94.20
2022-11-02T04:45:14.781Z,94.19
2022-11-02T04:47:43.809Z,94.25
2022-11-02T04:50:12.690Z,93.68
2022-11-02T04:52:40.437Z,93.34
2022-11-02T04:55:09.164Z,92.85
2022-11-02T04:57:36.981Z,92.99
2022-11-02T05:00:07.322Z,92.21
2022-11-02T05:02:35.070Z,92.22
2022-11-02T05:05:06.133Z,92.76
2022-11-02T05:07:33.842Z,92.59
2022-11-02T05:10:01.630Z,92.40
2022-11-02T05:12:29.514Z,92.57
2022-11-02T05:14:57.200Z,92.23
2022-11-02T05:17:24.916Z,91.86
2022-11-02T05:19:52.699Z,91.53
2022-11-02T05:22:22.457Z,91.45
2022-11-02T05:24:50.071Z,91.15
2022-11-02T05:27:17.844Z,90.64
2022-11-02T05:29:45.464Z,91.32
2022-11-02T05:32:13.444Z,90.66
2022-11-02T05:34:41.139Z,91.74
2022-11-02T05:37:08.764Z,91.51
2022-11-02T05:39:38.201Z,91.91
2022-11-02T05:42:05.952Z,91.68
2022-11-02T05:44:33.595Z,91.59
2022-11-02T05:47:01.505Z,90.96
2022-11-02T05:49:29.170Z,90.63
2022-11-02T05:51:56.841Z,90.10
2022-11-02T05:54:25.436Z,90.59
2022-11-02T05:56:54.413Z,91.39
2022-11-02T05:59:22.214Z,91.15
2022-11-02T06:01:50.026Z,91.40
2022-11-02T06:04:17.750Z,91.53
2022-11-02T06:06:45.787Z,91.61
2022-11-02T06:09:13.400Z,92.06
2022-11-02T06:11:41.428Z,92.11
2022-11-02T06:14:10.626Z,91.79
2022-11-02T06:16:38.366Z,91.96
2022-11-02T06:19:06.056Z,92.34
2022-11-02T06:21:34.013Z,92.51
2022-11-02T06:24:01.831Z,91.88
2022-11-02T06:26:29.615Z,92.14
2022-11-02T06:28:57.246Z,92.37
2022-11-02T06:31:26.252Z,92.42
2022-11-02T06:33:54.019Z,92.19
2022-11-02T06:36:21.849Z,92.39
2022-11-02T06:38:49.496Z,92.23
2022-11-02T06:41:17.288Z,92.23
2022-11-02T06:43:44.940Z,91.79
2022-11-02T06:46:12.674Z,91.65
2022-11-02T06:48:41.849Z,91.38
2022-11-02T06:51:09.511Z,91.64
2022-11-02T06:53:37.149Z,91.70
2022-11-02T06:56:04.984Z,91.31
2022-11-02T06:58:32.641Z,91.34
2022-11-02T07:01:02.378Z,91.21
2022-11-02T07:03:31.238Z,91.17
2022-11-02T07:06:00.846Z,91.75
2022-11-02T07:08:29.454Z,91.53
2022-11-02T07:10:57.980Z,92.12
2022-11-02T07:13:25.822Z,91.43
2022-11-02T07:15:54.334Z,91.34
2022-11-02T07:18:22.306Z,91.52
2022-11-02T07:20:50.374Z,91.60
2022-11-02T07:23:23.536Z,91.63
2022-11-02T07:25:51.229Z,91.86
2022-11-02T07:28:18.966Z,91.48
2022-11-02T07:30:46.703Z,91.08
2022-11-02T07:33:14.375Z,90.42
2022-11-02T07:35:42.412Z,91.03
2022-11-02T07:38:10.835Z,90.32
2022-11-02T07:40:40.088Z,90.64
2022-11-02T07:43:08.579Z,90.36
2022-11-02T07:45:36.591Z,90.51
2022-11-02T07:48:04.409Z,91.26
2022-11-02T07:50:32.159Z,91.33
2022-11-02T07:53:00.621Z,91.52
2022-11-02T07:55:33.534Z,91.04
2022-11-02T07:58:03.882Z,91.06
2022-11-02T08:00:34.100Z,90.90
2022-11-02T08:03:03.738Z,90.71
2022-11-02T08:05:33.403Z,91.15
2022-11-02T08:08:02.857Z,90.52
2022-11-02T08:10:37.036Z,89.91
2022-11-02T08:13:09.401Z,89.77
2022-11-02T08:15:37.275Z,89.30
2022-11-02T08:18:06.684Z,89.91
2022-11-02T08:20:36.378Z,90.43
2022-11-02T08:23:04.937Z,89.80
2022-11-02T08:25:33.036Z,88.19
2022-11-02T08:28:01.744Z,88.42
2022-11-02T08:30:32.466Z,87.63
2022-11-02T08:33:04.589Z,87.88
2022-11-02T08:35:32.268Z,87.70
2022-11-02T08:38:00.835Z,87.32
2022-11-02T08:40:28.637Z,87.70
2022-11-02T08:43:00.152Z,86.23
2022-11-02T08:45:32.314Z,86.62
2022-11-02T08:48:08.378Z,86.73
2022-11-02T08:50:36.479Z,85.55
2022-11-02T08:53:04.585Z,86.57
2022-11-02T08:55:32.494Z,85.77
2022-11-02T08:58:01.610Z,86.38
2022-11-02T09:00:31.669Z,85.68
2022-11-02T09:03:01.061Z,85.98
2022-11-02T09:05:31.580Z,84.88
2022-11-02T09:08:00.837Z,85.97
2022-11-02T09:10:29.716Z,86.19
2022-11-02T09:12:57.801Z,83.25
2022-11-02T09:15:25.411Z,84.32
2022-11-02T09:17:53.008Z,83.99
2022-11-02T09:20:21.946Z,83.42
2022-11-02T09:22:51.024Z,82.83
2022-11-02T09:25:19.092Z,83.55
2022-11-02T09:27:49.443Z,83.34
2022-11-02T09:30:20.801Z,82.69
2022-11-02T09:32:55.051Z,83.28
2022-11-02T09:35:23.170Z,82.47
2022-11-02T09:37:52.569Z,81.64
2022-11-02T09:40:22.716Z,80.58
2022-11-02T09:43:00.057Z,80.46
2022-11-02T09:45:28.846Z,81.43
2022-11-02T09:48:20.981Z,80.72
2022-11-02T09:50:59.236Z,80.32
2022-11-02T09:53:40.630Z,80.56
2022-11-02T09:56:10.076Z,80.57
2022-11-02T09:58:40.617Z,80.00
2022-11-02T10:01:25.206Z,80.37
2022-11-02T10:04:08.050Z,77.07
2022-11-02T10:06:38.599Z,78.27
2022-11-02T10:09:13.759Z,77.42
2022-11-02T10:11:48.615Z,78.19
2022-11-02T10:14:22.884Z,75.92
2022-11-02T10:16:58.782Z,77.44
2022-11-02T10:19:30.295Z,77.57
2022-11-02T10:21:59.647Z,78.81
2022-11-02T10:24:35.867Z,77.73
2022-11-02T10:27:14.262Z,77.39
2022-11-02T10:29:49.682Z,76.56
2022-11-02T10:32:18.088Z,76.36
2022-11-02T10:34:58.700Z,74.96
2022-11-02T10:37:48.037Z,74.65
2022-11-02T10:40:32.574Z,73.61
2022-11-02T10:43:12.157Z,74.69
2022-11-02T10:46:11.378Z,73.14
2022-11-02T10:48:45.258Z,73.92
2022-11-02T10:51:14.818Z,72.55
2022-11-02T10:53:45.245Z,74.38
2022-11-02T10:56:19.740Z,70.89
2022-11-02T10:58:53.842Z,71.87
2022-11-02T11:01:21.593Z,69.92
2022-11-02T11:03:58.110Z,69.93
2022-11-02T11:06:28.513Z,67.48
2022-11-02T11:09:00.943Z,68.31
2022-11-02T11:11:32.549Z,67.85
2022-11-02T11:16:54.172Z,67.62
2022-11-02T11:22:03.000Z,66.50
2022-11-02T11:24:32.532Z,65.62
2022-11-02T11:27:16.848Z,66.55
2022-11-02T11:29:53.376Z,66.29
2022-11-02T11:32:29.577Z,65.58
2022-11-02T11:35:01.260Z,65.27
2022-11-02T11:37:29.234Z,62.73
2022-11-02T11:40:01.685Z,63.51
2022-11-02T11:42:35.466Z,63.84
2022-11-02T11:45:06.786Z,62.20
2022-11-02T11:47:38.017Z,61.98
2022-11-02T11:50:14.184Z,63.27
2022-11-02T11:53:10.687Z,62.64
2022-11-02T11:55:47.914Z,61.85
2022-11-02T11:58:20.059Z,61.83
2022-11-02T12:01:09.427Z,63.68
2022-11-02T12:03:53.391Z,62.19
2022-11-02T12:06:30.962Z,62.55
2022-11-02T12:09:05.896Z,61.31
2022-11-02T12:11:49.085Z,61.02
2022-11-02T12:14:34.204Z,61.99
2022-11-02T12:17:27.603Z,63.12
2022-11-02T12:20:20.318Z,63.45
2022-11-02T12:22:59.366Z,63.09
2022-11-02T12:25:45.561Z,63.65
2022-11-02T12:28:38.740Z,61.43
2022-11-02T12:31:20.025Z,60.43
2022-11-02T12:34:04.589Z,58.71
2022-11-02T12:37:27.440Z,60.64
2022-11-02T12:39:55.217Z,59.68
2022-11-02T12:42:29.046Z,59.83
2022-11-02T12:45:18.673Z,59.71
2022-11-02T12:47:58.856Z,58.64
2022-11-02T12:50:48.035Z,60.10
2022-11-02T12:53:29.963Z,58.46
2022-11-02T12:56:01.678Z,60.07
2022-11-02T12:58:31.496Z,61.71
2022-11-02T13:01:12.336Z,59.25
2022-11-02T13:03:52.398Z,60.13
2022-11-02T13:06:26.477Z,59.82
2022-11-02T13:08:57.746Z,58.59
2022-11-02T13:11:31.804Z,59.26
2022-11-02T13:14:00.829Z,59.26
2022-11-02T13:16:39.822Z,60.02
2022-11-02T13:19:16.718Z,60.74
2022-11-02T13:21:49.548Z,61.40
2022-11-02T13:24:25.095Z,60.88
2022-11-02T13:27:07.401Z,60.55
2022-11-02T13:29:46.078Z,59.60
2022-11-02T13:32:22.311Z,60.87
2022-11-02T13:34:55.001Z,58.75
2022-11-02T13:37:27.579Z,59.19
2022-11-02T13:39:59.139Z,61.13
2022-11-02T13:42:46.755Z,58.75
2022-11-02T13:45:30.166Z,60.12
2022-11-02T13:48:30.576Z,58.71
2022-11-02T13:51:05.571Z,60.89
2022-11-02T13:53:37.668Z,60.56
2022-11-02T13:56:10.331Z,58.91
2022-11-02T13:58:42.211Z,60.14
2022-11-02T14:01:12.663Z,60.94
2022-11-02T14:03:50.074Z,61.06
2022-11-02T14:06:20.638Z,60.79
2022-11-02T14:08:52.857Z,63.05
2022-11-02T14:11:48.040Z,60.48
2022-11-02T14:14:25.016Z,63.27
2022-11-02T14:17:04.252Z,60.81
2022-11-02T14:19:53.052Z,63.03
2022-11-02T14:22:22.318Z,62.22
2022-11-02T14:25:08.299Z,63.88
2022-11-02T14:27:36.808Z,63.88
2022-11-02T14:30:04.987Z,64.04
2022-11-02T14:32:50.169Z,65.86
2022-11-02T14:35:30.807Z,66.60
2022-11-02T14:38:20.825Z,66.13
2022-11-02T14:40:55.203Z,66.57
2022-11-02T14:44:05.809Z,66.93
2022-11-02T14:46:56.537Z,67.86
2022-11-02T14:49:27.956Z,67.23
2022-11-02T14:52:03.899Z,68.31
2022-11-02T14:54:39.716Z,68.69
2022-11-02T14:57:21.715Z,70.24
2022-11-02T14:59:53.321Z,69.42
2022-11-02T15:02:25.483Z,69.10
2022-11-02T15:04:55.494Z,68.64
2022-11-02T15:07:28.204Z,69.02
2022-11-02T15:09:59.352Z,69.19
2022-11-02T15:12:38.818Z,70.22
2022-11-02T15:15:30.793Z,70.99
2022-11-02T15:18:21.645Z,71.74
2022-11-02T15:21:26.681Z,71.36
2022-11-02T15:24:16.606Z,72.85
2022-11-02T15:26:55.884Z,72.99
2022-11-02T15:29:36.954Z,73.62
2022-11-02T15:32:07.232Z,74.36
2022-11-02T15:34:37.995Z,73.37
2022-11-02T15:37:06.554Z,74.42
2022-11-02T15:39:34.646Z,74.72
2022-11-02T15:42:08.622Z,75.65
2022-11-02T15:45:14.152Z,77.85
2022-11-02T15:48:02.527Z,79.28
2022-11-02T15:50:47.292Z,76.14
2022-11-02T15:53:36.825Z,76.43
2022-11-02T15:56:17.089Z,78.20
2022-11-02T15:59:03.744Z,77.78
2022-11-02T16:01:31.627Z,78.15
2022-11-02T16:04:02.924Z,79.74
2022-11-02T16:06:33.813Z,80.11
2022-11-02T16:09:02.910Z,80.11
2022-11-02T16:11:31.968Z,81.10
2022-11-02T16:14:17.473Z,82.66
2022-11-02T16:16:49.101Z,84.31
2022-11-02T16:19:20.082Z,85.81
2022-11-02T16:21:48.291Z,83.63
2022-11-02T16:24:16.690Z,82.85
2022-11-02T16:26:47.300Z,83.39
2022-11-02T16:29:31.261Z,85.73
2022-11-02T16:31:59.096Z,85.58
2022-11-02T16:34:30.981Z,86.95
2022-11-02T16:37:00.029Z,86.74
2022-11-02T16:39:30.384Z,88.36
2022-11-02T16:42:00.415Z,87.95
2022-11-02T16:44:31.493Z,88.55
2022-11-02T16:47:01.390Z,89.35
2022-11-02T16:49:29.693Z,90.31
2022-11-02T16:51:59.359Z,91.94
2022-11-02T16:54:41.193Z,91.29
2022-11-02T16:57:16.939Z,92.30
2022-11-02T16:59:52.246Z,93.47
2022-11-02T17:02:26.008Z,93.49
2022-11-02T17:05:02.530Z,93.69
2022-11-02T17:07:36.889Z,94.31
2022-11-02T17:10:07.114Z,94.11
2022-11-02T17:12:38.049Z,95.20
2022-11-02T17:15:16.975Z,95.67
2022-11-02T17:17:45.320Z,95.27
2022-11-02T17:20:22.059Z,94.80
2022-11-02T17:22:52.807Z,95.18
2022-11-02T17:25:22.975Z,94.77
2022-11-02T17:27:51.034Z,94.28
2022-11-02T17:30:47.543Z,94.20
2022-11-02T17:33:25.045Z,92.75
2022-11-02T17:35:55.029Z,91.83
2022-11-02T17:38:26.527Z,90.56
2022-11-02T17:40:54.862Z,91.25
2022-11-02T17:43:23.509Z,90.12
2022-11-02T17:45:59.621Z,90.96
2022-11-02T17:48:28.892Z,89.51
2022-11-02T17:50:59.580Z,89.98
2022-11-02T17:53:27.514Z,87.86
2022-11-02T17:55:56.193Z,87.29
2022-11-02T17:58:23.834Z,88.67
2022-11-02T18:00:53.987Z,89.86
2022-11-02T18:03:29.792Z,90.25
2022-11-02T18:06:00.346Z,89.50
2022-11-02T18:08:28.513Z,90.34
2022-11-02T18:10:56.718Z,89.69
2022-11-02T18:13:25.206Z,89.66
2022-11-02T18:15:52.838Z,88.82
2022-11-02T18:18:20.553Z,88.17
2022-11-02T18:20:49.586Z,87.85
2022-11-02T18:23:19.718Z,88.50
2022-11-02T18:25:47.960Z,87.42
2022-11-02T18:28:15.594Z,87.58
2022-11-02T18:30:44.207Z,86.17
2022-11-02T18:33:13.715Z,86.62
2022-11-02T18:35:42.265Z,87.16
2022-11-02T18:38:11.642Z,85.25
2022-11-02T18:40:39.310Z,85.48
2022-11-02T18:43:07.312Z,85.26
2022-11-02T18:45:35.203Z,85.41
2022-11-02T18:48:03.172Z,86.08
2022-11-02T18:50:31.116Z,86.01
2022-11-02T18:52:58.826Z,85.55
2022-11-02T18:55:27.794Z,86.25
2022-11-02T18:57:56.511Z,84.75
2022-11-02T19:00:24.179Z,85.13
2022-11-02T19:02:51.902Z,83.57
2022-11-02T19:05:37.246Z,83.59
2022-11-02T19:08:22.504Z,84.14
2022-11-02T19:10:52.193Z,84.06
2022-11-02T19:13:19.834Z,82.56
2022-11-02T19:15:47.502Z,82.41
2022-11-02T19:18:15.172Z,82.91
2022-11-02T19:20:42.855Z,83.46
2022-11-02T19:23:11.224Z,82.79
2022-11-02T19:25:39.012Z,84.81
2022-11-02T19:28:09.413Z,84.43
2022-11-02T19:30:38.553Z,84.11
2022-11-02T19:33:06.567Z,84.48
2022-11-02T19:35:35.590Z,83.90
2022-11-02T19:38:03.316Z,83.09
2022-11-02T19:40:31.001Z,83.94
2022-11-02T19:42:58.647Z,83.57
2022-11-02T19:45:27.880Z,83.65
2022-11-02T19:47:55.539Z,83.61
2022-11-02T19:50:23.170Z,83.77
2022-11-02T19:52:50.844Z,82.12
2022-11-02T19:55:18.490Z,83.67
2022-11-02T19:57:46.139Z,82.47
2022-11-02T20:00:15.163Z,83.10
2022-11-02T20:02:44.294Z,83.51
2022-11-02T20:05:14.546Z,83.43
2022-11-02T20:07:42.266Z,83.33
2022-11-02T20:10:10.978Z,82.03
2022-11-02T20:12:38.697Z,83.22
2022-11-02T20:15:07.915Z,83.12
2022-11-02T20:17:52.048Z,83.79
2022-11-02T20:20:24.843Z,84.88
2022-11-02T20:22:52.578Z,84.02
2022-11-02T20:25:20.211Z,84.77
2022-11-02T20:27:47.800Z,84.17
2022-11-02T20:30:15.480Z,85.10
2022-11-02T20:32:43.560Z,84.23
2022-11-02T20:35:13.758Z,84.60
2022-11-02T20:37:43.087Z,84.73
2022-11-02T20:40:11.840Z,84.17
2022-11-02T20:42:39.550Z,84.37
2022-11-02T20:45:08.371Z,84.14
2022-11-02T20:47:36.048Z,84.31
2022-11-02T20:50:03.744Z,84.48
2022-11-02T20:52:31.408Z,84.10
2022-11-02T20:55:00.437Z,84.79
2022-11-02T20:57:28.920Z,85.93
2022-11-02T20:59:56.553Z,84.54
2022-11-02T21:02:24.718Z,84.38
2022-11-02T21:04:52.506Z,84.46
2022-11-02T21:07:20.141Z,85.24
2022-11-02T21:09:47.897Z,84.32
2022-11-02T21:12:34.241Z,84.10
2022-11-02T21:15:02.427Z,84.30
2022-11-02T21:17:30.231Z,84.21
2022-11-02T21:20:08.110Z,84.95
2022-11-02T21:22:45.778Z,84.12
2022-11-02T21:25:13.457Z,83.53
2022-11-02T21:27:42.501Z,84.15
2022-11-02T21:30:11.175Z,84.45
2022-11-02T21:32:38.866Z,84.48
2022-11-02T21:35:07.570Z,84.79
2022-11-02T21:37:35.267Z,85.46
2022-11-02T21:40:04.210Z,85.38
2022-11-02T21:42:31.863Z,84.97
2022-11-02T21:45:00.957Z,85.46
2022-11-02T21:47:34.053Z,84.68
2022-11-02T21:50:02.662Z,84.88
2022-11-02T21:52:30.301Z,85.32
2022-11-02T21:54:57.921Z,85.48
2022-11-02T21:57:25.598Z,85.60
2022-11-02T21:59:53.234Z,86.46
2022-11-02T22:02:22.502Z,86.43
2022-11-02T22:04:53.627Z,86.73
2022-11-02T22:07:21.472Z,86.31
2022-11-02T22:09:49.126Z,86.34
2022-11-02T22:12:34.157Z,86.84
2022-11-02T22:15:01.856Z,86.67
2022-11-02T22:20:18.498Z,87.19
2022-11-02T22:22:46.340Z,88.19
2022-11-02T22:25:13.953Z,88.02
2022-11-02T22:27:41.746Z,88.01
2022-11-02T22:30:10.258Z,88.51
2022-11-02T22:32:39.294Z,88.68
2022-11-02T22:35:08.174Z,88.70
2022-11-02T22:37:53.541Z,89.11
2022-11-02T22:40:21.192Z,88.60
2022-11-02T22:42:48.829Z,89.98
2022-11-02T22:45:17.031Z,89.74
2022-11-02T22:47:46.069Z,90.83
2022-11-02T22:50:13.776Z,89.62
2022-11-02T22:52:41.392Z,89.39
2022-11-02T22:55:10.605Z,89.59
2022-11-02T22:57:38.259Z,89.47
2022-11-02T23:00:07.031Z,88.98
2022-11-02T23:02:34.688Z,88.86
2022-11-02T23:05:03.754Z,89.01
2022-11-02T23:07:31.446Z,89.08
2022-11-02T23:09:59.100Z,88.75
2022-11-02T23:12:25.737Z,89.55
2022-11-02T23:14:53.393Z,88.78
2022-11-02T23:17:21.061Z,89.40
2022-11-02T23:19:47.704Z,89.79
2022-11-02T23:22:34.609Z,89.76
2022-11-02T23:25:14.112Z,89.30
2022-11-02T23:28:03.085Z,89.91
2022-11-02T23:30:50.445Z,89.24
2022-11-02T23:33:18.801Z,88.93
2022-11-02T23:36:04.128Z,89.54
2022-11-02T23:38:47.041Z,89.85
2022-11-02T23:41:14.742Z,89.93
2022-11-02T23:43:42.415Z,90.41
2022-11-02T23:46:10.114Z,89.24
2022-11-02T23:48:37.732Z,90.39
2022-11-02T23:51:23.337Z,90.38
2022-11-02T23:54:09.884Z,89.82
2022-11-02T23:56:46.580Z,90.38
2022-11-02T23:59:17.004Z,90.02
